MET: Información y Pronóstico Aeronáutico

MET: Información y Pronóstico Aeronáutico

///////////////////////////////////////////////////////////////////////////////////////////////////////////////////////////////////////////////////////////////////////////////////////////////////////////////////////////////////////////////

18 DE JULIO 2018

INFORMACION METEOROLOGICA AERONAUTICA (METAR) 12:00 UTC

Aeropuerto AEROPARQUE J. NEWBERY

18 - 12:00 METAR SABE 181200Z 11013KT 6000 OVC003 12/12 Q1015 NOSIG =

Aeropuerto BAHIA BLANCA

18 - 12:00 METAR SAZB 181200Z 11012KT 9999 -DZ SCT010 OVC050 08/08 Q1021 =

Aeropuerto BARILOCHE

18 - 12:00 METAR SAZS 181200Z VRB02KT 6000 VCSH BKN024 OVC030 00/M01 Q1022 RESN NO SIG =

Aeropuerto CATAMARCA

18 - 12:00 METAR SANC 181200Z 23002KT 9999 HZ OVC030 10/08 Q1014 =

Aeropuerto CHAPELCO

18 - 12:00 METAR SAZY 181200Z 00205KT 9999 SCT006 BKN025 OVC100 M01/M01 Q1020 =

Aeropuerto COMODORO RIVADAVIA

18 - 12:00 METAR SAVC 181200Z 23006KT 150V270 3000 -SN FEW005 SCT010 OVC040 01/M00 Q1034 =

Aeropuerto CORDOBA

18 - 12:00 METAR SACO 181200Z 14003KT 5000 BR BKN005 SCT012 08/08 Q1015 TEMPO 18005KT 1000 DZ BCFG SCT002 OVC008 =

Aeropuerto CORRIENTES

18 - 12:00 METAR SARC 181200Z 05005KT 5000 BR NSC 21/19 Q1012 =

Aeropuerto EL CALAFATE

18 - 12:00 METAR SAWC 181200Z 09003KT 9999 FEW025 BKN060 M04/M06 Q1035 =

Aeropuerto EL PALOMAR

18 - 11:00 METAR SADP 181100Z 14006KT 3000 BR OVC005 12/12 Q1015 =

Aeropuerto ESQUEL

18 - 12:00 METAR SAVE 181200Z 19004KT 150V260 9999 FEW005 BKN025 M00/M01 Q1024 =

Aeropuerto EZEIZA

18 - 12:00 METAR SAEZ 181200Z 08010KT 1400 R11/1500 -DZ BR OVC003 12/12 Q1014 BECMG 2000 DZBR OVC004 =

Aeropuerto FORMOSA

18 - 12:00 METAR SARF 181200Z 05008KT CAVOK 23/15 Q1012 =

Aeropuerto IGUAZU/CATARATAS

18 - 12:00 METAR SARI 181200Z 05006KT CAVOK 18/14 Q1018 =

Aeropuerto JUJUY

18 - 12:00 METAR SASJ 181200Z 32004KT 9999 BKN040 12/09 Q1014 =

Aeropuerto LA RIOJA

18 - 12:00 METAR SANL 181200Z 00000KT 9999 FU FEW035 BKN056 10/09 Q1014 =

Aeropuerto MALARGUE

18 - 12:00 METAR SAMM 181200Z 00000KT 0800 -SNFG BKN010 BKN025 00/M02 Q1017 =

Aeropuerto MAR DEL PLATA

18 - 12:00 METAR SAZM 181200Z 11013KT 0900 R13/1000 DZ OVC008 10/09 Q1020 =

Aeropuerto MENDOZA

18 - 12:00 METAR SAME 181200Z 00000KT 6000 OVC030 05/04 Q1017 =

Aeropuerto MORON

18 - 12:00 METAR SADM 181200Z 07006KT 2000 BR OVC003 12/12 Q1013 =

Aeropuerto NEUQUEN

18 - 12:00 METAR SAZN 181200Z 14003KT 7000 -DZ SCT012 BKN015 05/04 Q1022 =

Aeropuerto PARANA

18 - 12:00 METAR SAAP 181200Z 00000KT 0500 FG OVC020 12/12 Q1014 =

Aeropuerto POSADAS

18 - 12:00 METAR SARP 181200Z 02009KT CAVOK 22/14 Q1015 =

Aeropuerto PUERTO MADRYN

18 - 12:00 METAR SAVY 181200Z 16008KT 9999 SCT015 BKN018 BKN056 06/05 Q1026 =

Aeropuerto RECONQUISTA

18 - 12:00 METAR SATR 181200Z 16005KT 4000 BR FEW010 SCT100 15/15 Q1012 =

Aeropuerto RESISTENCIA

18 - 12:00 METAR SARE 181200Z 11001KT 5000 BR NSC 20/20 Q1011 =

Aeropuerto RIO CUARTO

18 - 12:00 METAR SAOC 181200Z 20013KT 4000 DZBR OVC008 05/05 Q1014 =

Aeropuerto RIO GALLEGOS

18 - 12:00 METAR SAWG 181200Z 00000KT CAVOK M07/M08 Q1035 =

Aeropuerto RIO GRANDE

18 - 12:00 METAR SAWE 181200Z 27009KT CAVOK M08/M09 Q1033 =

Aeropuerto ROSARIO

18 - 12:00 METAR SAAR 181200Z 00000KT 0200 -DZ FG OVC002 13/12 Q1014 =

Aeropuerto SALTA

18 - 12:00 METAR SASA 181200Z 23002KT 8000 FEW008 BKN017 11/09 Q1014 =

Aeropuerto SAN FERNANDO

18 - 12:00 METAR SADF 181200Z 11008KT 4000 BR OVC003 13/12 Q1014 =

Aeropuerto SAN JUAN

18 - 12:00 METAR SANU 181200Z 16006KT 9999 BKN010 OVC060 05/02 Q1018 =

Aeropuerto SAN LUIS

18 - 12:00 METAR SAOU 181200Z 14007KT 5000 BR BKN018 BKN020 04/03 Q1015 =

Aeropuerto SAN RAFAEL

18 - 12:00 METAR SAMR 181200Z 14003KT 8000 BR SCT008 BKN010 04/03 Q1018 =

Aeropuerto SANTA ROSA

18 - 12:00 METAR SAZR 181200Z 11012KT 1200 DZBR BKN003 OVC050 08/07 Q1017 =

Aeropuerto SANTIAGO DEL ESTERO

18 - 12:00 METAR SANE 181200Z 20005KT 1500 BR OVC008 11/10 Q1014 =

Aeropuerto SAUCE VIEJO

18 - 12:00 METAR SAAV 181200Z 25003KT 0100 +FG SCT002 OVC003 12/12 Q1014 =

Aeropuerto TANDIL

18 - 12:00 METAR SAZT 181200Z 11018KT 3000 -DZBR OVC004 09/09 Q1018 =

Aeropuerto TERMAS DE RIO HONDO

18 - 12:00 METAR SANR 181200Z 00000KT 3000 -DZ OVC010 11/10 Q1014 =

Aeropuerto TRELEW

18 - 12:00 METAR SAVT 181200Z 16006KT 9999 SCT025 SCT100 06/05 Q1028 =

Aeropuerto TUCUMAN

18 - 12:00 METAR SANT 181200Z 00000KT 4000 BR BKN009 OVC025 11/10 Q1013 REDZ =

Aeropuerto USHUAIA

18 - 12:00 METAR SAWH 181200Z 36004KT CAVOK M02/M04 Q1033 =

Aeropuerto VIEDMA

18 - 12:00 METAR SAVV 181200Z 11008KT 9999 FEW010 OVC100 07/06 Q1025 =

Aeropuerto VILLA REYNOLDS

18 - 12:00 METAR SAOR 181200Z 23002KT 0400 DZ FG OVC001 04/04 Q1017 =

PRONOSTICO DE AERODROMO (TAF) 11:00 UTC

Estación AEROPARQUE J. NEWBERY

18 - 11:00 TAF SABE 181100Z 1812/1912 13010KT 7000 -DZ OVC004 TX13/1818Z TN11/1911Z TEMPO 1814/1819 3000 DZ OVC008 PROB30 TEMPO 1819/1900 5000 SHRA BKN010 FEW030CB OVC040 =

Estación BAHIA BLANCA

18 - 11:00 TAF SAZB 181100Z 1812/1912 14010KT 8000 -DZ OVC003 TX09/1818Z TN08/1812Z BECMG 1815/1818 6000 SHRA BKN006 FEW050CB BECMG 1900/1903 09010KT 8000 DZ BKN003 BECMG 1909/1912 9999 BKN004 OVC010 =

Estación BARILOCHE

18 - 11:00 TAF SAZS 181100Z 1812/1912 14005KT 1600 SN FEW003 BKN025 OVC030 TX03/1817Z TNM03/1910Z TEMPO 1813/1817 3000 SN BKN010 OVC025 BECMG 1817/1820 16010KT 9999 BKN025 BECMG 1902/1905 14015G25KT =

Estación CATAMARCA

18 - 11:00 TAF SANC 181100Z 1812/1912 VRB03KT CAVOK TX15/1818Z TN02/1910Z BECMG 1818/1820 18010KT 5000 RA DZ BR OVC015 =

Estación CHAPELCO

18 - 11:00 TAF SAZY 181100Z 1812/1912 VRB05KT 8000 SCT010 BKN020 TX01/1818Z TNM02/1903Z BECMG 1815/1818 14010KT 9999 BKN010 BECMG 1821/1900 14005KT 8000 -DZSN OVC008 PROB30 1906/1912 12015G25KT 5000 SN BKN005 =

Estación COMODORO RIVADAVIA

18 - 11:00 TAF SAVC 181100Z 1812/1912 23005KT 3000 RASN FEW005 BKN010 OVC040 TX05/1818Z TN00/1810Z BECMG 1813/1815 22015KT 9999 OVC020 BKN050 BECMG 1900/1902 18010KT 8000 DZBR SCT010 BKN030 =

Estación CORDOBA

18 - 11:00 TAF SACO 181100Z 1812/1912 14005KT 1500 DZ BR BKN002 OVC008 TX11/1818Z TN00/1910Z TEMPO 1812/1814 18005KT 0200 DZ FG BKN001 OVC005 BECMG 1814/1816 5000 DZ BR SCT005 OVC010 BECMG 1821/1823 18015KT 9999 SCT015 OVC030 PROB40 TEMPO 1823/1904 FEW030CB =

Estación CORRIENTES

18 - 11:00 TAF SARC 181100Z 1812/1912 07005KT 5000 BR NSC TX31/1818Z TN18/1910Z BECMG 1814/1816 8000 PROB40 1908/1812 1500 BR =

Estación EL CALAFATE

18 - 11:00 TAF SAWC 181100Z 1812/1912 11005KT 9999 SCT030 BKN070 BKN200 TXM02/1818Z TNM04/1811Z BECMG 1813/1816 09005KT 9999 FEW030 BKN030 BKN060 =

Estación EL PALOMAR

18 - 11:00 TAF SADP 181100Z 1812/1912 12007KT 2000 DZBR OVC003 TX14/1818Z TN12/1910Z BECMG 1815/1818 5000 -DZ BKN005 BKN0010 BECMG 1900/1903 14005KT 1500 +DZRA BR OVC003 PROB30 TEMPO 1906/1912 19008KT 2000 SHRA BKN002 FEW040CB =

Estación ESQUEL

18 - 11:00 TAF SAVE 181100Z 1812/1912 VRB03KT 9999 SN BKN025 BKN030 TX02/1818Z TNM01/1800Z TEMPO 1812/1820 14010KT 5000 +SN BKN010 OVC020 =

Estación EZEIZA

18 - 11:00 TAF SAEZ 181100Z 1812/1912 12010KT 3000 DZBR OVC003 TX14/1818Z TN12/1910Z BECMG 1815/1818 5000 -DZ BKN005 BKN010 BECMG 1900/1903 14005KT 1500 +DZRA BR OVC003 PROB30 TEMPO 1906/1912 19008KT 2000 SHRA BKN002 FEW040CB =

Estación FORMOSA

18 - 11:00 TAF SARF 181100Z 1812/1912 07005KT 6000 SCT020 TX33/1818Z TN20/1910Z BECMG 1814/1816 CAVOK =

Estación IGUAZU/CATARATAS

18 - 11:00 TAF SARI 181100Z 1812/1912 05005KT CAVOK TX33/1818Z TN17/1910Z =

Estación JUJUY

18 - 11:00 TAF SASJ 181100Z 1812/1912 32005KT 5000 DZ BR OVC030 TX20/1818Z TN12/1910Z BECMG 1814/1816 14005KT 7000 BKN030 BECMG 1906/1908 18005KT 5000 DZ OVC008 =

Estación LA RIOJA

18 - 11:00 TAF SANL 181100Z 1812/1912 18005KT 9999 OVC040 TX14/1918Z TN01/1810Z BECMG 1814/1816 18010KT 5000 RZ DZ SCT015 OVC020 =

Estación MAR DEL PLATA

18 - 11:00 TAF SAZM 181100Z 1812/1912 11010KT 3000 RA BKN015 BKN030 TX11/1818Z TN09/1910Z BECMG 1813/1814 10015G25KT 4000 RA BKN012 OVC030 BECMG 1900/1902 09010KT 5000 RA BR BKN008 OVC015 =

Estación MENDOZA

18 - 11:00 TAF SAME 181100Z 1812/1912 18010KT 9999 OVC030 TX09/1820Z TN02/1910Z TEMPO 1812/1814 00000KT 5000 BR OVC020 BECMG 1822/1900 16010KT 6000 DZ OVC020 =

Estación NEUQUEN

18 - 11:00 TAF SAZN 181100Z 1812/1912 14005KT 8000 -DZ FEW015 SCT020 OVC025 TX07/1819Z TN02/1911Z BECMG 1902/1904 16010KT 4000 RA BKN010 OVC030 =

Estación PARANA

18 - 11:00 TAF SAAP 181100Z 1812/1912 14010KT 0500 FGDZ BKN003 SCT010 TX15/1818Z TN08/1912Z BECMG 1815/1818 5000 BR SCT008 BKN010 BECMG 1900/1903 19010KT 9999 BKN007 PROB30 TEMPO 1906/1912 22015KT 5000 TSRA OVC010 FEW040CB =

Estación POSADAS

18 - 11:00 TAF SARP 181100Z 1812/1912 05005KT CAVOK TX30/1818Z TN18/1910Z =

Estación RESISTENCIA

18 - 11:00 TAF SARE 181100Z 1812/1912 14005KT 3000 BRFU NSC TX31/1818Z TN18/1910Z BECMG 1814/1816 8000 PROB40 1908/1812 1500 BR =

Estación RIO GALLEGOS

18 - 11:00 TAF SAWG 181100Z 1812/1912 23003KT CAVOK TX01/1818Z TNM07/1810Z BECMG 1814/1816 32010KT BECMG 1821/1900 36015KT 9999 SCT020 BKN045 =

Estación RIO GRANDE

18 - 11:00 TAF SAWE 181100Z 1812/1912 27005KT CAVOK TXM01/1818Z TNM10/1811Z BECMG 1816/1820 29010KT 9999 SCT020 BKN150 =

Estación ROSARIO

18 - 11:00 TAF SAAR 181100Z 1812/1912 140005KT 0100 -DZFG OVC001 TX14/1818Z TN08/1912Z BECMG 1814/1817 14010KT 3000 DZBR BKN008 OVC020 BECMG 1901/1903 0800 DZFG OVC005 =

Estación SALTA

18 - 11:00 TAF SASA 181100Z 1812/1912 23005KT 5000 DZ BR SCT005 OVC010 TX18/1818Z TN09/1910Z BECMG 1814/1816 05005KT 7000 BKN025 BECMG 1906/1908 36005KT 5000 DZ OVC008 =

Estación SAN FERNANDO

18 - 11:00 TAF SADF 181100Z 1812/1912 11010KT 4000 DZ BR OVC005 TX14/1818Z TN11/1911Z TEMPO 1815/1820 8000 BKN010 BKN020 BECMG 1903/1906 23005KT 2000 RADZ BR OVC008 OVC025 =

Estación SAN JUAN

18 - 11:00 TAF SANU 181100Z 1812/1912 16015KT 9999 OVC020 TX09/1820Z TN01/1910Z =

Estación SAN LUIS

18 - 11:00 TAF SAOU 181100Z 1812/1912 16010KT 9999 OVC020 TX09/1819Z TN04/1909Z TEMPO 1812/1816 16010KT 4000 DZBR OVC010 =

Estación SAN RAFAEL

18 - 11:00 TAF SAMR 181100Z 1812/1912 16010KT 9999 OVC020 TX07/1820Z TN01/1911Z BECMG 1815/1817 16010KT 5000 DZ OVC010 BECMG 1820/1822 16005KT 9999 OVC020 BECMG 1903/1905 20005KT 4000 DZ OVC010 =

Estación SANTA ROSA

18 - 11:00 TAF SAZR 181100Z 1812/1912 14010KT 1500 DZBR OVC003 TX07/1818Z TN05/1911Z BECMG 1815/1818 19010KT 5000 RADZ SCT007 BKN010 BECMG 1900/1903 23015KT 8000 OVC003 PROB30 1906/1912 9999 OVC005 =

Estación SANTIAGO DEL ESTERO

18 - 11:00 TAF SANE 181100Z 1812/1912 18005KT 2000 DZ BR SCT002 OVC005 TX13/1818Z TN00/1910Z TEMPO 1812/1814 18010KT 0500 DZ FG OVC001 BECMG 1818/1821 18010KT 9999 BKN015 =

Estación SAUCE VIEJO

18 - 11:00 TAF SAAV 181100Z 1812/1912 14010KT 0500 FGDZ BKN003 SCT010 TX15/1818Z TN08/1912Z BECMG 1815/1818 5000 BR SCT008 BKN010 BECMG 1900/1903 19010KT 9999 BKN007 PROB30 TEMPO 1906/1912 22015KT 5000 TSRA OVC010 FEW040CB =

Estación TERMAS DE RIO HONDO

18 - 12:00 TAF SANR 181100Z 1812/1912 14005KT 2000 DZ BR SCT005 OVC008 TX15/1818Z TN02/1910Z TEMPO 1813/1815 0500 DZ FG OVC002 BECMG 1816/1818 09005KT 5000 DZ BR OVC010 BECMG 1904/1906 18010KT 3000 DZ BR OVC008 =

Estación TRELEW

18 - 11:00 TAF SAVT 181100Z 1812/1912 VRB03KT 9999 SCT030 SCT100 TX08/1818Z TN05/1812Z BECMG 1812/1815 8000 RADZ BKN020 OVC040 BECMG 1821/1823 14010KT 7000 BR BKN010 OVC030 =

Estación TUCUMAN

18 - 11:00 TAF SANT 181100Z 1812/1912 05005KT 5000 DZ BR BKN015 OVC030 TX15/1718Z TN10/1910Z PROB40 TEMPO 1812/1814 1500 DZ BR BKN008 OVC015 =

Estación USHUAIA

18 - 11:00 TAF SAWH 181100Z 1812/1912 VRB03KT CAVOK TX01/1718Z TNM03/1810Z 32010KT 9999 SCT030 BKN045 =

Estación VIEDMA

18 - 11:00 TAF SAVV 181100Z 1812/1912 14005KT 8000 DZBR SCT005 OVC045 TX09/1818Z TN06/1809Z BECMG 1815/1818 9999 NSW OVC035 BECMG 1821/1823 14015KT 5000 RADZ BKN008 OVC015 =